sensor_id;sensor_type;location;lat;lon;timestamp;P1;durP1;ratioP1;P2;durP2;ratioP2
64132;SDS011;53116;52.020;4.446;2022-09-13T00:00:37;3.33;;;2.63;;
64132;SDS011;53116;52.020;4.446;2022-09-13T00:03:03;4.03;;;2.85;;
64132;SDS011;53116;52.020;4.446;2022-09-13T00:05:29;3.58;;;3.00;;
64132;SDS011;53116;52.020;4.446;2022-09-13T00:07:55;4.50;;;3.17;;
64132;SDS011;53116;52.020;4.446;2022-09-13T00:10:21;3.45;;;2.88;;
64132;SDS011;53116;52.020;4.446;2022-09-13T00:12:47;3.47;;;2.95;;
64132;SDS011;53116;52.020;4.446;2022-09-13T00:15:13;3.65;;;2.90;;
64132;SDS011;53116;52.020;4.446;2022-09-13T00:17:39;4.38;;;3.30;;
64132;SDS011;53116;52.020;4.446;2022-09-13T00:20:04;3.77;;;2.80;;
64132;SDS011;53116;52.020;4.446;2022-09-13T00:22:30;3.45;;;3.00;;
64132;SDS011;53116;52.020;4.446;2022-09-13T00:24:55;4.60;;;2.92;;
64132;SDS011;53116;52.020;4.446;2022-09-13T00:27:21;5.20;;;3.20;;
64132;SDS011;53116;52.020;4.446;2022-09-13T00:29:46;3.07;;;2.73;;
64132;SDS011;53116;52.020;4.446;2022-09-13T00:32:11;3.60;;;2.97;;
64132;SDS011;53116;52.020;4.446;2022-09-13T00:34:37;4.88;;;2.90;;
64132;SDS011;53116;52.020;4.446;2022-09-13T00:37:02;3.97;;;2.83;;
64132;SDS011;53116;52.020;4.446;2022-09-13T00:39:29;4.68;;;3.08;;
64132;SDS011;53116;52.020;4.446;2022-09-13T00:41:54;3.63;;;2.60;;
64132;SDS011;53116;52.020;4.446;2022-09-13T00:47:27;4.30;;;2.90;;
64132;SDS011;53116;52.020;4.446;2022-09-13T00:49:57;3.28;;;2.75;;
64132;SDS011;53116;52.020;4.446;2022-09-13T00:52:31;2.70;;;2.42;;
64132;SDS011;53116;52.020;4.446;2022-09-13T00:55:01;3.63;;;2.80;;
64132;SDS011;53116;52.020;4.446;2022-09-13T00:57:30;3.33;;;2.78;;
64132;SDS011;53116;52.020;4.446;2022-09-13T01:00:01;3.47;;;2.88;;
64132;SDS011;53116;52.020;4.446;2022-09-13T01:02:36;5.78;;;2.85;;
64132;SDS011;53116;52.020;4.446;2022-09-13T01:05:02;3.20;;;2.90;;
64132;SDS011;53116;52.020;4.446;2022-09-13T01:07:28;3.03;;;2.72;;
64132;SDS011;53116;52.020;4.446;2022-09-13T01:09:54;3.10;;;2.80;;
64132;SDS011;53116;52.020;4.446;2022-09-13T01:15:13;3.13;;;2.58;;
64132;SDS011;53116;52.020;4.446;2022-09-13T01:17:39;5.03;;;2.70;;
64132;SDS011;53116;52.020;4.446;2022-09-13T01:20:06;4.25;;;2.70;;
64132;SDS011;53116;52.020;4.446;2022-09-13T01:25:33;3.95;;;2.53;;
64132;SDS011;53116;52.020;4.446;2022-09-13T01:28:09;3.72;;;2.88;;
64132;SDS011;53116;52.020;4.446;2022-09-13T01:33:38;3.03;;;2.47;;
64132;SDS011;53116;52.020;4.446;2022-09-13T01:39:07;3.22;;;2.90;;
64132;SDS011;53116;52.020;4.446;2022-09-13T01:47:31;3.22;;;2.80;;
64132;SDS011;53116;52.020;4.446;2022-09-13T01:58:06;3.03;;;2.53;;
64132;SDS011;53116;52.020;4.446;2022-09-13T02:00:43;3.40;;;2.60;;
64132;SDS011;53116;52.020;4.446;2022-09-13T02:03:17;3.17;;;2.85;;
64132;SDS011;53116;52.020;4.446;2022-09-13T02:05:50;3.03;;;2.72;;
64132;SDS011;53116;52.020;4.446;2022-09-13T02:08:22;3.83;;;2.70;;
64132;SDS011;53116;52.020;4.446;2022-09-13T02:11:12;3.67;;;2.65;;
64132;SDS011;53116;52.020;4.446;2022-09-13T02:13:45;3.22;;;2.92;;
64132;SDS011;53116;52.020;4.446;2022-09-13T02:16:15;3.00;;;2.70;;
64132;SDS011;53116;52.020;4.446;2022-09-13T02:18:48;3.38;;;2.85;;
64132;SDS011;53116;52.020;4.446;2022-09-13T02:21:20;4.05;;;2.75;;
64132;SDS011;53116;52.020;4.446;2022-09-13T02:23:52;3.70;;;2.90;;
64132;SDS011;53116;52.020;4.446;2022-09-13T02:26:24;4.38;;;2.90;;
64132;SDS011;53116;52.020;4.446;2022-09-13T02:28:53;3.08;;;2.60;;
64132;SDS011;53116;52.020;4.446;2022-09-13T02:32:21;3.22;;;2.90;;
64132;SDS011;53116;52.020;4.446;2022-09-13T02:34:30;3.35;;;3.05;;
64132;SDS011;53116;52.020;4.446;2022-09-13T02:37:03;3.17;;;2.87;;
64132;SDS011;53116;52.020;4.446;2022-09-13T02:39:29;3.53;;;2.75;;
64132;SDS011;53116;52.020;4.446;2022-09-13T02:42:01;3.17;;;2.70;;
64132;SDS011;53116;52.020;4.446;2022-09-13T02:44:34;3.65;;;2.63;;
64132;SDS011;53116;52.020;4.446;2022-09-13T03:00:28;4.28;;;3.00;;
64132;SDS011;53116;52.020;4.446;2022-09-13T03:02:55;3.20;;;2.90;;
64132;SDS011;53116;52.020;4.446;2022-09-13T03:05:22;3.38;;;3.03;;
64132;SDS011;53116;52.020;4.446;2022-09-13T03:07:48;3.50;;;2.42;;
64132;SDS011;53116;52.020;4.446;2022-09-13T03:10:15;3.22;;;2.90;;
64132;SDS011;53116;52.020;4.446;2022-09-13T03:23:59;2.90;;;2.60;;
64132;SDS011;53116;52.020;4.446;2022-09-13T03:26:52;3.03;;;2.72;;
64132;SDS011;53116;52.020;4.446;2022-09-13T03:32:23;5.35;;;2.72;;
64132;SDS011;53116;52.020;4.446;2022-09-13T03:35:14;2.80;;;2.60;;
64132;SDS011;53116;52.020;4.446;2022-09-13T03:43:24;4.32;;;3.10;;
64132;SDS011;53116;52.020;4.446;2022-09-13T03:48:27;3.03;;;2.50;;
64132;SDS011;53116;52.020;4.446;2022-09-13T03:50:54;3.30;;;2.78;;
64132;SDS011;53116;52.020;4.446;2022-09-13T03:53:22;3.45;;;2.90;;
64132;SDS011;53116;52.020;4.446;2022-09-13T03:55:51;3.08;;;2.78;;
64132;SDS011;53116;52.020;4.446;2022-09-13T03:58:17;3.00;;;2.40;;
64132;SDS011;53116;52.020;4.446;2022-09-13T04:00:44;3.03;;;2.72;;
64132;SDS011;53116;52.020;4.446;2022-09-13T04:03:10;4.18;;;2.60;;
64132;SDS011;53116;52.020;4.446;2022-09-13T04:05:36;3.42;;;2.70;;
64132;SDS011;53116;52.020;4.446;2022-09-13T04:08:02;3.75;;;2.78;;
64132;SDS011;53116;52.020;4.446;2022-09-13T04:10:30;4.35;;;2.85;;
64132;SDS011;53116;52.020;4.446;2022-09-13T04:12:59;3.47;;;2.78;;
64132;SDS011;53116;52.020;4.446;2022-09-13T04:15:25;2.90;;;2.60;;
64132;SDS011;53116;52.020;4.446;2022-09-13T04:17:53;8.50;;;4.22;;
64132;SDS011;53116;52.020;4.446;2022-09-13T04:20:18;4.72;;;4.22;;
64132;SDS011;53116;52.020;4.446;2022-09-13T04:22:54;5.05;;;4.40;;
64132;SDS011;53116;52.020;4.446;2022-09-13T04:25:20;8.50;;;4.65;;
64132;SDS011;53116;52.020;4.446;2022-09-13T04:27:46;7.40;;;4.55;;
64132;SDS011;53116;52.020;4.446;2022-09-13T04:30:12;5.00;;;4.50;;
64132;SDS011;53116;52.020;4.446;2022-09-13T04:32:37;5.75;;;4.75;;
64132;SDS011;53116;52.020;4.446;2022-09-13T04:35:08;5.82;;;5.22;;
64132;SDS011;53116;52.020;4.446;2022-09-13T04:37:34;5.32;;;4.65;;
64132;SDS011;53116;52.020;4.446;2022-09-13T04:39:59;9.18;;;4.97;;
64132;SDS011;53116;52.020;4.446;2022-09-13T04:42:25;6.75;;;5.15;;
64132;SDS011;53116;52.020;4.446;2022-09-13T04:44:50;8.40;;;4.60;;
64132;SDS011;53116;52.020;4.446;2022-09-13T04:47:15;7.40;;;5.00;;
64132;SDS011;53116;52.020;4.446;2022-09-13T04:49:43;9.27;;;5.13;;
64132;SDS011;53116;52.020;4.446;2022-09-13T04:52:08;6.35;;;5.20;;
64132;SDS011;53116;52.020;4.446;2022-09-13T04:54:33;6.23;;;5.03;;
64132;SDS011;53116;52.020;4.446;2022-09-13T04:56:59;10.50;;;5.32;;
64132;SDS011;53116;52.020;4.446;2022-09-13T04:59:24;7.85;;;5.15;;
64132;SDS011;53116;52.020;4.446;2022-09-13T05:01:49;6.70;;;5.32;;
64132;SDS011;53116;52.020;4.446;2022-09-13T05:04:14;8.20;;;4.88;;
64132;SDS011;53116;52.020;4.446;2022-09-13T05:06:40;11.25;;;4.70;;
64132;SDS011;53116;52.020;4.446;2022-09-13T05:09:05;12.20;;;4.38;;
64132;SDS011;53116;52.020;4.446;2022-09-13T05:11:31;9.43;;;4.97;;
64132;SDS011;53116;52.020;4.446;2022-09-13T05:13:57;9.15;;;4.80;;
64132;SDS011;53116;52.020;4.446;2022-09-13T05:16:25;6.20;;;5.05;;
64132;SDS011;53116;52.020;4.446;2022-09-13T05:18:55;16.60;;;5.32;;
64132;SDS011;53116;52.020;4.446;2022-09-13T05:21:21;10.32;;;5.93;;
64132;SDS011;53116;52.020;4.446;2022-09-13T05:23:48;11.20;;;6.78;;
64132;SDS011;53116;52.020;4.446;2022-09-13T05:26:14;10.95;;;6.47;;
64132;SDS011;53116;52.020;4.446;2022-09-13T05:28:40;7.13;;;6.43;;
64132;SDS011;53116;52.020;4.446;2022-09-13T05:31:06;8.53;;;6.40;;
64132;SDS011;53116;52.020;4.446;2022-09-13T05:33:54;9.88;;;6.47;;
64132;SDS011;53116;52.020;4.446;2022-09-13T05:36:22;7.60;;;6.35;;
64132;SDS011;53116;52.020;4.446;2022-09-13T05:38:48;7.82;;;7.00;;
64132;SDS011;53116;52.020;4.446;2022-09-13T05:41:13;8.70;;;6.23;;
64132;SDS011;53116;52.020;4.446;2022-09-13T05:43:38;10.27;;;7.03;;
64132;SDS011;53116;52.020;4.446;2022-09-13T05:46:08;9.90;;;6.90;;
64132;SDS011;53116;52.020;4.446;2022-09-13T05:48:35;12.77;;;7.68;;
64132;SDS011;53116;52.020;4.446;2022-09-13T05:51:05;13.05;;;7.00;;
64132;SDS011;53116;52.020;4.446;2022-09-13T05:53:32;9.57;;;6.60;;
64132;SDS011;53116;52.020;4.446;2022-09-13T05:55:58;9.88;;;6.55;;
64132;SDS011;53116;52.020;4.446;2022-09-13T05:58:24;9.50;;;7.05;;
64132;SDS011;53116;52.020;4.446;2022-09-13T06:00:53;10.77;;;6.60;;
64132;SDS011;53116;52.020;4.446;2022-09-13T06:03:22;10.57;;;7.00;;
64132;SDS011;53116;52.020;4.446;2022-09-13T06:05:48;10.20;;;7.57;;
64132;SDS011;53116;52.020;4.446;2022-09-13T06:08:14;13.48;;;7.25;;
64132;SDS011;53116;52.020;4.446;2022-09-13T06:10:39;12.45;;;6.93;;
64132;SDS011;53116;52.020;4.446;2022-09-13T06:13:05;9.57;;;7.05;;
64132;SDS011;53116;52.020;4.446;2022-09-13T06:15:30;11.95;;;7.20;;
64132;SDS011;53116;52.020;4.446;2022-09-13T06:17:56;12.82;;;6.70;;
64132;SDS011;53116;52.020;4.446;2022-09-13T06:20:21;11.65;;;7.47;;
64132;SDS011;53116;52.020;4.446;2022-09-13T06:22:47;13.85;;;7.35;;
64132;SDS011;53116;52.020;4.446;2022-09-13T06:25:12;12.30;;;7.18;;
64132;SDS011;53116;52.020;4.446;2022-09-13T06:27:38;13.32;;;6.93;;
64132;SDS011;53116;52.020;4.446;2022-09-13T06:30:03;8.67;;;6.40;;
64132;SDS011;53116;52.020;4.446;2022-09-13T06:32:29;10.52;;;6.85;;
64132;SDS011;53116;52.020;4.446;2022-09-13T06:34:54;9.68;;;6.15;;
64132;SDS011;53116;52.020;4.446;2022-09-13T06:37:20;9.82;;;6.13;;
64132;SDS011;53116;52.020;4.446;2022-09-13T06:39:46;10.02;;;5.97;;
64132;SDS011;53116;52.020;4.446;2022-09-13T06:42:11;8.55;;;5.43;;
64132;SDS011;53116;52.020;4.446;2022-09-13T06:44:36;8.48;;;5.30;;
64132;SDS011;53116;52.020;4.446;2022-09-13T06:47:02;6.50;;;4.40;;
64132;SDS011;53116;52.020;4.446;2022-09-13T06:49:27;7.65;;;4.72;;
64132;SDS011;53116;52.020;4.446;2022-09-13T06:51:55;4.78;;;4.15;;
64132;SDS011;53116;52.020;4.446;2022-09-13T06:54:20;6.43;;;4.25;;
64132;SDS011;53116;52.020;4.446;2022-09-13T06:56:46;7.70;;;3.90;;
64132;SDS011;53116;52.020;4.446;2022-09-13T06:59:11;6.10;;;3.83;;
64132;SDS011;53116;52.020;4.446;2022-09-13T07:01:38;4.82;;;3.50;;
64132;SDS011;53116;52.020;4.446;2022-09-13T07:04:05;8.02;;;3.53;;
64132;SDS011;53116;52.020;4.446;2022-09-13T07:06:33;4.95;;;3.30;;
64132;SDS011;53116;52.020;4.446;2022-09-13T07:09:01;6.00;;;3.35;;
64132;SDS011;53116;52.020;4.446;2022-09-13T07:11:30;5.25;;;2.80;;
64132;SDS011;53116;52.020;4.446;2022-09-13T07:13:59;6.32;;;2.70;;
64132;SDS011;53116;52.020;4.446;2022-09-13T07:16:32;4.45;;;2.47;;
64132;SDS011;53116;52.020;4.446;2022-09-13T07:19:01;4.18;;;2.40;;
64132;SDS011;53116;52.020;4.446;2022-09-13T07:21:31;2.30;;;1.80;;
64132;SDS011;53116;52.020;4.446;2022-09-13T07:23:58;4.63;;;2.22;;
64132;SDS011;53116;52.020;4.446;2022-09-13T07:26:24;2.92;;;1.80;;
64132;SDS011;53116;52.020;4.446;2022-09-13T07:28:55;3.80;;;2.10;;
64132;SDS011;53116;52.020;4.446;2022-09-13T07:31:25;5.57;;;2.55;;
64132;SDS011;53116;52.020;4.446;2022-09-13T07:33:54;4.47;;;2.08;;
64132;SDS011;53116;52.020;4.446;2022-09-13T07:36:24;5.03;;;1.73;;
64132;SDS011;53116;52.020;4.446;2022-09-13T07:38:50;3.63;;;2.00;;
64132;SDS011;53116;52.020;4.446;2022-09-13T07:41:17;2.40;;;1.73;;
64132;SDS011;53116;52.020;4.446;2022-09-13T07:43:44;2.80;;;1.50;;
64132;SDS011;53116;52.020;4.446;2022-09-13T07:46:11;2.85;;;1.52;;
64132;SDS011;53116;52.020;4.446;2022-09-13T07:48:39;3.38;;;1.73;;
64132;SDS011;53116;52.020;4.446;2022-09-13T07:51:10;4.40;;;1.90;;
64132;SDS011;53116;52.020;4.446;2022-09-13T07:53:37;3.60;;;1.80;;
64132;SDS011;53116;52.020;4.446;2022-09-13T07:56:04;3.15;;;1.80;;
64132;SDS011;53116;52.020;4.446;2022-09-13T07:58:32;3.40;;;2.03;;
64132;SDS011;53116;52.020;4.446;2022-09-13T08:03:53;4.15;;;1.70;;
64132;SDS011;53116;52.020;4.446;2022-09-13T08:06:19;3.33;;;1.67;;
64132;SDS011;53116;52.020;4.446;2022-09-13T08:08:45;2.42;;;1.50;;
64132;SDS011;53116;52.020;4.446;2022-09-13T08:11:13;3.70;;;1.60;;
64132;SDS011;53116;52.020;4.446;2022-09-13T08:13:42;7.07;;;1.70;;
64132;SDS011;53116;52.020;4.446;2022-09-13T08:16:08;2.53;;;1.38;;
64132;SDS011;53116;52.020;4.446;2022-09-13T08:18:33;2.43;;;1.60;;
64132;SDS011;53116;52.020;4.446;2022-09-13T08:20:59;4.90;;;1.65;;
64132;SDS011;53116;52.020;4.446;2022-09-13T08:23:25;4.50;;;1.80;;
64132;SDS011;53116;52.020;4.446;2022-09-13T08:25:50;2.83;;;1.60;;
64132;SDS011;53116;52.020;4.446;2022-09-13T08:28:17;3.50;;;1.50;;
64132;SDS011;53116;52.020;4.446;2022-09-13T08:30:45;3.83;;;1.70;;
64132;SDS011;53116;52.020;4.446;2022-09-13T08:33:11;2.63;;;1.33;;
64132;SDS011;53116;52.020;4.446;2022-09-13T08:35:36;2.93;;;1.40;;
64132;SDS011;53116;52.020;4.446;2022-09-13T08:38:02;2.47;;;1.40;;
64132;SDS011;53116;52.020;4.446;2022-09-13T08:40:33;2.22;;;1.52;;
64132;SDS011;53116;52.020;4.446;2022-09-13T08:45:36;3.55;;;1.70;;
64132;SDS011;53116;52.020;4.446;2022-09-13T08:48:02;2.58;;;1.55;;
64132;SDS011;53116;52.020;4.446;2022-09-13T08:50:33;2.20;;;1.23;;
64132;SDS011;53116;52.020;4.446;2022-09-13T08:55:55;3.10;;;1.10;;
64132;SDS011;53116;52.020;4.446;2022-09-13T09:01:23;1.88;;;1.10;;
64132;SDS011;53116;52.020;4.446;2022-09-13T09:06:46;3.53;;;1.27;;
64132;SDS011;53116;52.020;4.446;2022-09-13T09:09:12;1.85;;;1.10;;
64132;SDS011;53116;52.020;4.446;2022-09-13T09:14:40;2.75;;;1.15;;
64132;SDS011;53116;52.020;4.446;2022-09-13T09:17:15;3.03;;;1.20;;
64132;SDS011;53116;52.020;4.446;2022-09-13T09:19:45;3.95;;;1.30;;
64132;SDS011;53116;52.020;4.446;2022-09-13T09:22:17;2.35;;;1.30;;
64132;SDS011;53116;52.020;4.446;2022-09-13T09:24:46;3.53;;;1.02;;
64132;SDS011;53116;52.020;4.446;2022-09-13T09:27:16;1.63;;;1.20;;
64132;SDS011;53116;52.020;4.446;2022-09-13T09:29:43;2.13;;;1.00;;
64132;SDS011;53116;52.020;4.446;2022-09-13T09:37:56;2.75;;;1.10;;
64132;SDS011;53116;52.020;4.446;2022-09-13T09:40:24;4.07;;;1.17;;
64132;SDS011;53116;52.020;4.446;2022-09-13T09:42:49;3.57;;;1.07;;
64132;SDS011;53116;52.020;4.446;2022-09-13T09:45:22;3.10;;;1.20;;
64132;SDS011;53116;52.020;4.446;2022-09-13T09:47:51;3.42;;;1.30;;
64132;SDS011;53116;52.020;4.446;2022-09-13T09:50:24;4.85;;;1.30;;
64132;SDS011;53116;52.020;4.446;2022-09-13T09:52:58;5.20;;;1.17;;
64132;SDS011;53116;52.020;4.446;2022-09-13T09:55:54;6.40;;;1.30;;
64132;SDS011;53116;52.020;4.446;2022-09-13T09:58:40;2.85;;;1.10;;
64132;SDS011;53116;52.020;4.446;2022-09-13T10:04:07;4.35;;;1.10;;
64132;SDS011;53116;52.020;4.446;2022-09-13T10:06:43;3.85;;;1.15;;
64132;SDS011;53116;52.020;4.446;2022-09-13T10:11:39;3.65;;;1.10;;
64132;SDS011;53116;52.020;4.446;2022-09-13T10:14:05;4.30;;;1.10;;
64132;SDS011;53116;52.020;4.446;2022-09-13T10:17:00;2.88;;;1.10;;
64132;SDS011;53116;52.020;4.446;2022-09-13T10:19:28;3.63;;;1.25;;
64132;SDS011;53116;52.020;4.446;2022-09-13T10:21:58;2.08;;;0.93;;
64132;SDS011;53116;52.020;4.446;2022-09-13T10:24:29;1.97;;;1.13;;
64132;SDS011;53116;52.020;4.446;2022-09-13T10:26:55;5.10;;;1.20;;
64132;SDS011;53116;52.020;4.446;2022-09-13T10:29:21;5.05;;;1.10;;
64132;SDS011;53116;52.020;4.446;2022-09-13T10:31:48;4.03;;;1.20;;
64132;SDS011;53116;52.020;4.446;2022-09-13T10:34:30;4.15;;;1.10;;
64132;SDS011;53116;52.020;4.446;2022-09-13T10:37:01;3.78;;;1.20;;
64132;SDS011;53116;52.020;4.446;2022-09-13T10:39:27;4.65;;;1.33;;
64132;SDS011;53116;52.020;4.446;2022-09-13T10:44:26;2.05;;;0.95;;
64132;SDS011;53116;52.020;4.446;2022-09-13T10:46:57;4.60;;;1.10;;
64132;SDS011;53116;52.020;4.446;2022-09-13T10:50:09;3.33;;;1.38;;
64132;SDS011;53116;52.020;4.446;2022-09-13T10:57:43;2.40;;;1.02;;
64132;SDS011;53116;52.020;4.446;2022-09-13T11:00:19;3.17;;;1.23;;
64132;SDS011;53116;52.020;4.446;2022-09-13T11:05:39;2.30;;;1.20;;
64132;SDS011;53116;52.020;4.446;2022-09-13T11:11:03;4.47;;;1.00;;
64132;SDS011;53116;52.020;4.446;2022-09-13T11:28:33;2.05;;;1.02;;
64132;SDS011;53116;52.020;4.446;2022-09-13T11:31:03;6.40;;;1.20;;
64132;SDS011;53116;52.020;4.446;2022-09-13T11:39:07;3.20;;;1.33;;
64132;SDS011;53116;52.020;4.446;2022-09-13T11:44:31;3.70;;;1.02;;
64132;SDS011;53116;52.020;4.446;2022-09-13T11:47:25;4.28;;;1.00;;
64132;SDS011;53116;52.020;4.446;2022-09-13T11:55:56;3.33;;;0.85;;
64132;SDS011;53116;52.020;4.446;2022-09-13T11:58:29;2.67;;;1.00;;
64132;SDS011;53116;52.020;4.446;2022-09-13T12:01:01;3.42;;;1.00;;
64132;SDS011;53116;52.020;4.446;2022-09-13T12:06:20;2.50;;;1.00;;
64132;SDS011;53116;52.020;4.446;2022-09-13T12:08:50;4.97;;;1.17;;
64132;SDS011;53116;52.020;4.446;2022-09-13T12:11:22;2.30;;;0.85;;
64132;SDS011;53116;52.020;4.446;2022-09-13T12:13:54;1.70;;;1.00;;
64132;SDS011;53116;52.020;4.446;2022-09-13T12:16:25;4.50;;;1.13;;
64132;SDS011;53116;52.020;4.446;2022-09-13T12:22:09;2.50;;;0.80;;
64132;SDS011;53116;52.020;4.446;2022-09-13T12:24:44;2.53;;;0.90;;
64132;SDS011;53116;52.020;4.446;2022-09-13T12:29:52;2.15;;;0.93;;
64132;SDS011;53116;52.020;4.446;2022-09-13T12:32:20;1.98;;;0.73;;
64132;SDS011;53116;52.020;4.446;2022-09-13T12:35:02;3.05;;;1.00;;
64132;SDS011;53116;52.020;4.446;2022-09-13T12:43:04;2.90;;;0.73;;
64132;SDS011;53116;52.020;4.446;2022-09-13T12:48:52;3.53;;;0.90;;
64132;SDS011;53116;52.020;4.446;2022-09-13T12:57:44;3.05;;;0.80;;
64132;SDS011;53116;52.020;4.446;2022-09-13T13:00:27;3.28;;;0.90;;
64132;SDS011;53116;52.020;4.446;2022-09-13T13:03:02;4.33;;;1.20;;
64132;SDS011;53116;52.020;4.446;2022-09-13T13:10:59;3.45;;;0.80;;
64132;SDS011;53116;52.020;4.446;2022-09-13T13:16:21;4.35;;;1.02;;
64132;SDS011;53116;52.020;4.446;2022-09-13T13:19:44;3.55;;;0.80;;
64132;SDS011;53116;52.020;4.446;2022-09-13T13:28:01;3.80;;;1.00;;
64132;SDS011;53116;52.020;4.446;2022-09-13T13:33:21;2.40;;;1.00;;
64132;SDS011;53116;52.020;4.446;2022-09-13T13:35:50;4.10;;;0.80;;
64132;SDS011;53116;52.020;4.446;2022-09-13T13:40:47;4.22;;;0.80;;
64132;SDS011;53116;52.020;4.446;2022-09-13T13:45:58;1.90;;;0.80;;
64132;SDS011;53116;52.020;4.446;2022-09-13T13:48:44;4.85;;;0.95;;
64132;SDS011;53116;52.020;4.446;2022-09-13T13:53:38;2.25;;;0.73;;
64132;SDS011;53116;52.020;4.446;2022-09-13T13:56:07;3.28;;;0.88;;
64132;SDS011;53116;52.020;4.446;2022-09-13T13:58:46;2.22;;;0.70;;
64132;SDS011;53116;52.020;4.446;2022-09-13T14:01:16;1.77;;;0.68;;
64132;SDS011;53116;52.020;4.446;2022-09-13T14:12:06;2.38;;;0.60;;
64132;SDS011;53116;52.020;4.446;2022-09-13T14:14:41;1.83;;;0.77;;
64132;SDS011;53116;52.020;4.446;2022-09-13T14:20:20;2.00;;;0.80;;
64132;SDS011;53116;52.020;4.446;2022-09-13T14:22:47;2.35;;;0.70;;
64132;SDS011;53116;52.020;4.446;2022-09-13T14:27:44;1.95;;;0.70;;
64132;SDS011;53116;52.020;4.446;2022-09-13T14:30:18;4.47;;;0.80;;
64132;SDS011;53116;52.020;4.446;2022-09-13T14:32:52;4.72;;;0.80;;
64132;SDS011;53116;52.020;4.446;2022-09-13T14:35:30;2.63;;;0.70;;
64132;SDS011;53116;52.020;4.446;2022-09-13T14:38:11;4.45;;;0.93;;
64132;SDS011;53116;52.020;4.446;2022-09-13T14:40:48;2.40;;;0.60;;
64132;SDS011;53116;52.020;4.446;2022-09-13T14:43:19;4.10;;;0.90;;
64132;SDS011;53116;52.020;4.446;2022-09-13T14:45:46;3.08;;;0.90;;
64132;SDS011;53116;52.020;4.446;2022-09-13T14:48:21;2.45;;;0.80;;
64132;SDS011;53116;52.020;4.446;2022-09-13T14:50:53;3.25;;;0.80;;
64132;SDS011;53116;52.020;4.446;2022-09-13T14:53:36;5.22;;;0.90;;
64132;SDS011;53116;52.020;4.446;2022-09-13T14:56:07;2.33;;;0.80;;
64132;SDS011;53116;52.020;4.446;2022-09-13T14:58:44;3.00;;;1.08;;
64132;SDS011;53116;52.020;4.446;2022-09-13T15:01:14;2.58;;;0.73;;
64132;SDS011;53116;52.020;4.446;2022-09-13T15:03:43;2.42;;;0.70;;
64132;SDS011;53116;52.020;4.446;2022-09-13T15:06:21;4.18;;;0.70;;
64132;SDS011;53116;52.020;4.446;2022-09-13T15:08:49;2.92;;;0.57;;
64132;SDS011;53116;52.020;4.446;2022-09-13T15:11:32;2.63;;;0.80;;
64132;SDS011;53116;52.020;4.446;2022-09-13T15:16:45;2.88;;;0.73;;
64132;SDS011;53116;52.020;4.446;2022-09-13T15:19:35;3.42;;;1.00;;
64132;SDS011;53116;52.020;4.446;2022-09-13T15:25:16;2.97;;;0.90;;
64132;SDS011;53116;52.020;4.446;2022-09-13T15:27:48;3.50;;;0.82;;
64132;SDS011;53116;52.020;4.446;2022-09-13T15:33:02;4.88;;;1.00;;
64132;SDS011;53116;52.020;4.446;2022-09-13T15:35:30;3.95;;;1.05;;
64132;SDS011;53116;52.020;4.446;2022-09-13T15:38:23;4.40;;;0.90;;
64132;SDS011;53116;52.020;4.446;2022-09-13T15:43:35;4.30;;;0.80;;
64132;SDS011;53116;52.020;4.446;2022-09-13T15:46:00;2.43;;;0.73;;
64132;SDS011;53116;52.020;4.446;2022-09-13T15:48:30;3.17;;;0.80;;
64132;SDS011;53116;52.020;4.446;2022-09-13T15:51:15;2.50;;;0.60;;
64132;SDS011;53116;52.020;4.446;2022-09-13T15:53:42;3.83;;;0.93;;
64132;SDS011;53116;52.020;4.446;2022-09-13T15:56:11;2.90;;;0.80;;
64132;SDS011;53116;52.020;4.446;2022-09-13T15:58:39;3.25;;;0.77;;
64132;SDS011;53116;52.020;4.446;2022-09-13T16:01:04;2.47;;;0.90;;
64132;SDS011;53116;52.020;4.446;2022-09-13T16:03:30;3.45;;;0.60;;
64132;SDS011;53116;52.020;4.446;2022-09-13T16:05:56;2.90;;;0.80;;
64132;SDS011;53116;52.020;4.446;2022-09-13T16:08:22;2.95;;;0.90;;
64132;SDS011;53116;52.020;4.446;2022-09-13T16:10:48;2.20;;;0.70;;
64132;SDS011;53116;52.020;4.446;2022-09-13T16:13:14;3.63;;;0.95;;
64132;SDS011;53116;52.020;4.446;2022-09-13T16:15:39;3.78;;;0.77;;
64132;SDS011;53116;52.020;4.446;2022-09-13T16:18:05;2.60;;;0.70;;
64132;SDS011;53116;52.020;4.446;2022-09-13T16:20:30;4.00;;;0.70;;
64132;SDS011;53116;52.020;4.446;2022-09-13T16:22:55;4.43;;;0.73;;
64132;SDS011;53116;52.020;4.446;2022-09-13T16:25:21;2.72;;;0.88;;
64132;SDS011;53116;52.020;4.446;2022-09-13T16:27:46;2.42;;;0.70;;
64132;SDS011;53116;52.020;4.446;2022-09-13T16:30:13;5.22;;;0.70;;
64132;SDS011;53116;52.020;4.446;2022-09-13T16:32:42;2.58;;;0.82;;
64132;SDS011;53116;52.020;4.446;2022-09-13T16:35:08;3.15;;;0.80;;
64132;SDS011;53116;52.020;4.446;2022-09-13T16:37:35;4.88;;;1.00;;
64132;SDS011;53116;52.020;4.446;2022-09-13T16:40:01;3.17;;;0.80;;
64132;SDS011;53116;52.020;4.446;2022-09-13T16:42:26;2.65;;;0.80;;
64132;SDS011;53116;52.020;4.446;2022-09-13T16:44:51;4.90;;;0.90;;
64132;SDS011;53116;52.020;4.446;2022-09-13T16:47:17;2.33;;;0.80;;
64132;SDS011;53116;52.020;4.446;2022-09-13T16:49:42;4.10;;;1.10;;
64132;SDS011;53116;52.020;4.446;2022-09-13T16:52:08;5.63;;;0.82;;
64132;SDS011;53116;52.020;4.446;2022-09-13T16:54:34;3.47;;;0.90;;
64132;SDS011;53116;52.020;4.446;2022-09-13T16:57:00;4.82;;;0.80;;
64132;SDS011;53116;52.020;4.446;2022-09-13T16:59:27;3.17;;;0.80;;
64132;SDS011;53116;52.020;4.446;2022-09-13T17:01:53;4.28;;;0.80;;
64132;SDS011;53116;52.020;4.446;2022-09-13T17:04:18;3.30;;;0.77;;
64132;SDS011;53116;52.020;4.446;2022-09-13T17:06:44;2.78;;;0.68;;
64132;SDS011;53116;52.020;4.446;2022-09-13T17:09:09;8.63;;;0.98;;
64132;SDS011;53116;52.020;4.446;2022-09-13T17:11:36;3.57;;;0.87;;
64132;SDS011;53116;52.020;4.446;2022-09-13T17:14:06;5.00;;;0.85;;
64132;SDS011;53116;52.020;4.446;2022-09-13T17:16:34;3.95;;;0.90;;
64132;SDS011;53116;52.020;4.446;2022-09-13T17:19:04;4.90;;;1.00;;
64132;SDS011;53116;52.020;4.446;2022-09-13T17:21:31;4.13;;;1.00;;
64132;SDS011;53116;52.020;4.446;2022-09-13T17:23:57;5.07;;;0.70;;
64132;SDS011;53116;52.020;4.446;2022-09-13T17:26:23;4.68;;;0.82;;
64132;SDS011;53116;52.020;4.446;2022-09-13T17:28:49;2.40;;;0.80;;
64132;SDS011;53116;52.020;4.446;2022-09-13T17:31:16;4.60;;;1.00;;
64132;SDS011;53116;52.020;4.446;2022-09-13T17:33:42;3.42;;;0.75;;
64132;SDS011;53116;52.020;4.446;2022-09-13T17:36:07;4.57;;;0.70;;
64132;SDS011;53116;52.020;4.446;2022-09-13T17:38:35;3.58;;;0.80;;
64132;SDS011;53116;52.020;4.446;2022-09-13T17:41:01;4.97;;;1.30;;
64132;SDS011;53116;52.020;4.446;2022-09-13T17:43:32;3.55;;;0.85;;
64132;SDS011;53116;52.020;4.446;2022-09-13T17:46:17;5.35;;;1.10;;
64132;SDS011;53116;52.020;4.446;2022-09-13T17:48:47;3.00;;;0.85;;
64132;SDS011;53116;52.020;4.446;2022-09-13T17:51:15;5.40;;;0.98;;
64132;SDS011;53116;52.020;4.446;2022-09-13T17:53:42;3.90;;;0.90;;
64132;SDS011;53116;52.020;4.446;2022-09-13T17:56:10;5.78;;;0.80;;
64132;SDS011;53116;52.020;4.446;2022-09-13T17:58:36;4.20;;;0.90;;
64132;SDS011;53116;52.020;4.446;2022-09-13T18:01:05;3.40;;;0.75;;
64132;SDS011;53116;52.020;4.446;2022-09-13T18:03:33;3.40;;;0.70;;
64132;SDS011;53116;52.020;4.446;2022-09-13T18:05:59;4.10;;;0.85;;
64132;SDS011;53116;52.020;4.446;2022-09-13T18:08:26;1.77;;;0.73;;
64132;SDS011;53116;52.020;4.446;2022-09-13T18:10:52;2.35;;;0.85;;
64132;SDS011;53116;52.020;4.446;2022-09-13T18:13:18;4.32;;;0.82;;
64132;SDS011;53116;52.020;4.446;2022-09-13T18:15:44;3.08;;;0.90;;
64132;SDS011;53116;52.020;4.446;2022-09-13T18:18:11;4.68;;;1.02;;
64132;SDS011;53116;52.020;4.446;2022-09-13T18:20:36;4.43;;;0.90;;
64132;SDS011;53116;52.020;4.446;2022-09-13T18:23:03;3.42;;;0.80;;
64132;SDS011;53116;52.020;4.446;2022-09-13T18:25:28;4.93;;;1.00;;
64132;SDS011;53116;52.020;4.446;2022-09-13T18:27:53;3.00;;;0.77;;
64132;SDS011;53116;52.020;4.446;2022-09-13T18:30:19;4.47;;;0.77;;